Time;durP1;ratioP1;P1;durP2;ratioP2;P2;SDS_P1;SDS_P2;PMS_P1;PMS_P2;Temp;Humidity;BMP_temperature;BMP_pressure;BME280_temperature;BME280_humidity;BME280_pressure;Samples;Min_cycle;Max_cycle;Signal;HPM_P1;HPM_P2
2023/06/23 00:02:06;;;;;;;15.50;11.32;;;17.60;99.90;;;;;;5053893;28;20087;-69
2023/06/23 00:04:32;;;;;;;13.27;10.98;;;17.70;99.90;;;;;;5052920;28;20056;-70
2023/06/23 00:07:00;;;;;;;15.48;11.65;;;17.70;99.90;;;;;;5052747;28;20044;-70
2023/06/23 00:09:26;;;;;;;15.30;10.73;;;17.60;99.90;;;;;;5037403;28;20055;-70
2023/06/23 00:11:51;;;;;;;12.82;10.90;;;17.60;99.90;;;;;;5038425;28;20105;-69
2023/06/23 00:14:18;;;;;;;12.90;9.88;;;17.60;99.90;;;;;;5039016;28;20056;-69
2023/06/23 00:16:45;;;;;;;13.63;9.20;;;17.60;99.90;;;;;;5005946;28;20051;-69
2023/06/23 00:19:11;;;;;;;14.07;9.55;;;17.70;99.90;;;;;;5054443;28;20145;-71
2023/06/23 00:21:37;;;;;;;15.50;10.80;;;17.60;99.90;;;;;;5052699;28;20469;-69
2023/06/23 00:24:03;;;;;;;16.10;10.85;;;17.60;99.90;;;;;;5052396;28;20124;-70
2023/06/23 00:26:29;;;;;;;18.17;12.32;;;17.60;99.90;;;;;;5052122;28;20079;-69
2023/06/23 00:28:54;;;;;;;19.65;12.80;;;17.70;99.90;;;;;;5052273;28;20118;-69
2023/06/23 00:31:20;;;;;;;17.70;11.18;;;17.60;99.90;;;;;;5052438;28;20139;-69
2023/06/23 00:33:47;;;;;;;24.42;11.93;;;17.60;99.90;;;;;;5052279;28;20119;-68
2023/06/23 00:36:13;;;;;;;19.30;12.32;;;17.60;99.90;;;;;;5052079;28;20132;-69
2023/06/23 00:38:39;;;;;;;16.85;12.43;;;17.60;99.90;;;;;;5052256;28;20048;-68
2023/06/23 00:41:05;;;;;;;16.02;11.93;;;17.60;99.90;;;;;;5052299;28;20060;-68
2023/06/23 00:43:31;;;;;;;15.63;10.02;;;17.50;99.90;;;;;;5052427;28;20416;-68
2023/06/23 00:46:06;;;;;;;17.45;12.27;;;17.60;99.90;;;;;;5052063;28;20040;-70
2023/06/23 00:48:31;;;;;;;16.10;10.70;;;17.60;99.90;;;;;;5052518;28;20045;-71
2023/06/23 00:50:57;;;;;;;13.82;8.98;;;17.60;99.90;;;;;;5052100;28;20132;-70
2023/06/23 00:53:23;;;;;;;16.23;11.25;;;17.60;99.90;;;;;;5052150;28;20048;-68
2023/06/23 00:55:49;;;;;;;15.82;10.60;;;17.60;99.90;;;;;;5051937;28;20045;-68
2023/06/23 00:58:16;;;;;;;13.18;9.45;;;17.60;99.90;;;;;;5052089;28;20052;-68
2023/06/23 01:00:42;;;;;;;12.90;9.60;;;17.60;99.90;;;;;;5053056;28;20037;-70
2023/06/23 01:03:08;;;;;;;11.40;9.82;;;17.60;99.90;;;;;;5037839;28;20055;-69
2023/06/23 01:05:39;;;;;;;12.48;10.68;;;17.60;99.90;;;;;;5054244;28;20574;-71
2023/06/23 01:08:30;;;;;;;15.20;10.45;;;17.60;99.90;;;;;;5052050;28;20048;-67
2023/06/23 01:11:02;;;;;;;12.27;10.02;;;17.50;99.90;;;;;;5051884;28;20045;-69
2023/06/23 01:13:56;;;;;;;12.73;9.90;;;17.50;99.90;;;;;;5056046;28;20080;-69
2023/06/23 01:16:44;;;;;;;12.95;9.30;;;17.50;99.90;;;;;;5056159;28;20045;-69
2023/06/23 01:19:24;;;;;;;13.85;8.73;;;17.50;99.90;;;;;;5056008;28;20045;-68
2023/06/23 01:22:06;;;;;;;13.63;9.23;;;17.50;99.90;;;;;;5056268;28;20114;-68
2023/06/23 01:25:09;;;;;;;14.87;9.33;;;17.50;99.90;;;;;;5038578;28;20048;-68
2023/06/23 01:27:59;;;;;;;10.05;7.30;;;17.50;99.90;;;;;;5055808;28;20288;-68
2023/06/23 01:30:29;;;;;;;14.40;8.65;;;17.50;99.90;;;;;;5055697;28;20084;-68
2023/06/23 01:33:03;;;;;;;14.95;8.68;;;17.40;99.90;;;;;;5055749;28;20489;-68
2023/06/23 01:35:33;;;;;;;10.63;8.23;;;17.50;99.90;;;;;;5055782;28;20041;-69
2023/06/23 01:38:18;;;;;;;10.90;7.82;;;17.40;99.90;;;;;;5055559;28;20053;-68
2023/06/23 01:40:50;;;;;;;10.20;8.13;;;17.40;99.90;;;;;;5054875;28;20091;-69
2023/06/23 01:43:18;;;;;;;9.43;7.13;;;17.40;99.90;;;;;;5054919;28;20115;-69
2023/06/23 01:45:44;;;;;;;8.43;6.82;;;17.40;99.90;;;;;;5054602;28;20363;-70
2023/06/23 01:48:12;;;;;;;10.50;6.55;;;17.40;99.90;;;;;;5055460;28;20049;-68
2023/06/23 01:50:40;;;;;;;9.88;6.30;;;17.40;99.90;;;;;;5054054;28;20126;-70
2023/06/23 01:53:07;;;;;;;10.65;6.85;;;17.40;99.90;;;;;;5055713;28;20076;-69
2023/06/23 01:55:34;;;;;;;7.40;6.05;;;17.40;99.90;;;;;;5055195;28;20072;-68
2023/06/23 01:58:01;;;;;;;11.55;6.40;;;17.40;99.90;;;;;;5054249;28;20123;-69
2023/06/23 02:00:28;;;;;;;7.45;5.93;;;17.40;99.90;;;;;;5055789;28;20045;-70
2023/06/23 02:02:55;;;;;;;7.03;4.85;;;17.30;99.90;;;;;;5054594;28;20049;-68
2023/06/23 02:05:24;;;;;;;8.77;5.35;;;17.30;99.90;;;;;;5055814;28;20053;-68
2023/06/23 02:07:52;;;;;;;10.10;5.60;;;17.40;99.90;;;;;;5055424;28;20053;-69
2023/06/23 02:10:19;;;;;;;7.97;5.68;;;17.30;99.90;;;;;;5055269;28;20527;-68
2023/06/23 02:12:46;;;;;;;6.80;4.95;;;17.40;99.90;;;;;;5053890;28;20565;-68
2023/06/23 02:15:14;;;;;;;8.05;5.68;;;17.40;99.90;;;;;;5054040;28;20044;-70
2023/06/23 02:17:42;;;;;;;7.93;5.57;;;17.40;99.90;;;;;;5054229;28;20053;-69
2023/06/23 02:20:16;;;;;;;6.80;5.35;;;17.40;99.90;;;;;;5055047;28;20045;-69
2023/06/23 02:22:48;;;;;;;10.15;5.85;;;17.40;99.90;;;;;;5054939;28;20041;-69
2023/06/23 02:25:15;;;;;;;7.93;6.15;;;17.40;99.90;;;;;;5053569;28;20053;-69
2023/06/23 02:27:42;;;;;;;6.22;5.63;;;17.40;99.90;;;;;;5055266;28;20072;-69
2023/06/23 02:30:09;;;;;;;6.97;4.63;;;17.40;99.90;;;;;;5055096;28;20076;-69
2023/06/23 02:32:36;;;;;;;8.40;5.45;;;17.40;99.90;;;;;;5055943;28;20128;-69
2023/06/23 02:35:03;;;;;;;8.38;4.78;;;17.40;99.90;;;;;;5058365;28;20060;-70
2023/06/23 02:37:31;;;;;;;6.47;5.32;;;17.40;99.90;;;;;;5059117;28;20045;-69
2023/06/23 02:40:10;;;;;;;8.98;5.25;;;17.40;99.90;;;;;;5059224;28;20397;-69
2023/06/23 02:42:43;;;;;;;10.48;6.15;;;17.40;99.90;;;;;;5058445;28;20056;-71
2023/06/23 02:45:19;;;;;;;9.18;5.78;;;17.40;99.90;;;;;;5058170;28;20044;-69
2023/06/23 02:47:47;;;;;;;7.43;4.82;;;17.40;99.90;;;;;;5053856;28;20055;-69
2023/06/23 02:50:16;;;;;;;8.32;5.22;;;17.40;99.90;;;;;;5054519;28;20036;-69
2023/06/23 02:52:47;;;;;;;8.85;5.57;;;17.50;99.90;;;;;;5054693;28;20057;-69
2023/06/23 02:55:18;;;;;;;6.55;5.07;;;17.50;99.90;;;;;;5055040;28;20390;-69
2023/06/23 02:57:47;;;;;;;7.68;5.40;;;17.40;99.90;;;;;;5053994;28;20357;-69
2023/06/23 03:00:19;;;;;;;6.40;5.47;;;17.40;99.90;;;;;;5054503;28;20045;-68
2023/06/23 03:02:47;;;;;;;10.65;6.07;;;17.50;99.90;;;;;;5053312;28;20064;-69
2023/06/23 03:05:13;;;;;;;8.73;6.38;;;17.30;99.90;;;;;;5054363;28;20049;-69
2023/06/23 03:07:39;;;;;;;10.23;5.55;;;17.50;99.90;;;;;;5054573;28;20044;-69
2023/06/23 03:10:06;;;;;;;7.25;5.80;;;17.50;99.90;;;;;;5053160;28;20048;-70
2023/06/23 03:12:32;;;;;;;9.95;5.93;;;17.50;99.90;;;;;;5054438;28;20045;-70
2023/06/23 03:14:59;;;;;;;7.88;5.53;;;17.40;99.90;;;;;;5054416;28;20091;-70
2023/06/23 03:17:31;;;;;;;8.43;5.60;;;17.50;99.90;;;;;;5054057;28;20048;-70
2023/06/23 03:20:06;;;;;;;6.90;5.40;;;17.40;99.90;;;;;;5053944;28;20044;-70
2023/06/23 03:22:38;;;;;;;9.38;5.93;;;17.40;99.90;;;;;;5054702;28;20060;-70
2023/06/23 03:25:19;;;;;;;13.68;5.75;;;17.40;99.90;;;;;;5053802;28;20515;-68
2023/06/23 03:27:46;;;;;;;9.88;5.80;;;17.30;99.90;;;;;;5054105;28;20173;-68
2023/06/23 03:30:16;;;;;;;5.55;4.93;;;17.40;99.90;;;;;;5053775;28;20132;-70
2023/06/23 03:32:49;;;;;;;5.43;4.60;;;17.40;99.90;;;;;;5053785;28;20067;-70
2023/06/23 03:35:21;;;;;;;7.20;4.68;;;17.30;99.90;;;;;;5053483;28;20124;-69
2023/06/23 03:37:56;;;;;;;7.07;5.53;;;17.30;99.90;;;;;;5054037;28;20049;-70
2023/06/23 03:40:23;;;;;;;5.88;5.10;;;17.40;99.90;;;;;;5054093;28;20049;-69
2023/06/23 03:43:19;;;;;;;7.07;5.28;;;17.40;99.90;;;;;;5053476;28;20041;-69
2023/06/23 03:45:48;;;;;;;8.75;5.35;;;17.30;99.90;;;;;;5052087;28;20140;-70
2023/06/23 03:48:15;;;;;;;8.45;4.80;;;17.40;99.90;;;;;;5053730;28;20049;-70
2023/06/23 03:50:44;;;;;;;7.65;4.57;;;17.30;99.90;;;;;;5053344;28;20045;-69
2023/06/23 03:53:12;;;;;;;7.15;5.22;;;17.30;99.90;;;;;;5053339;28;20045;-68
2023/06/23 03:55:39;;;;;;;6.40;5.72;;;17.30;99.90;;;;;;5053690;28;20045;-69
2023/06/23 03:58:07;;;;;;;7.28;6.18;;;17.30;99.90;;;;;;5053910;28;20057;-68
2023/06/23 04:00:35;;;;;;;7.70;5.60;;;17.30;99.90;;;;;;5053257;28;20107;-69
2023/06/23 04:03:06;;;;;;;7.55;5.47;;;17.30;99.90;;;;;;5052231;28;20053;-69
2023/06/23 04:05:33;;;;;;;9.38;6.00;;;17.30;99.90;;;;;;5054019;28;20078;-69
2023/06/23 04:08:00;;;;;;;7.97;5.10;;;17.30;99.90;;;;;;5052237;28;20049;-68
2023/06/23 04:10:29;;;;;;;6.03;5.43;;;17.30;99.90;;;;;;5035822;28;20480;-68
2023/06/23 04:12:56;;;;;;;10.32;5.15;;;17.40;99.90;;;;;;5052802;28;20493;-69
2023/06/23 04:15:24;;;;;;;7.00;5.50;;;17.30;99.90;;;;;;5051782;28;20041;-68
2023/06/23 04:17:52;;;;;;;8.38;5.00;;;17.40;99.90;;;;;;5053003;28;20053;-69
2023/06/23 04:20:20;;;;;;;8.82;6.13;;;17.40;99.90;;;;;;5053259;28;20045;-69
2023/06/23 04:22:49;;;;;;;9.30;6.05;;;17.40;99.90;;;;;;5052828;28;20044;-70
2023/06/23 04:25:17;;;;;;;7.78;6.25;;;17.40;99.90;;;;;;5052727;28;20517;-68
2023/06/23 04:27:45;;;;;;;7.57;5.20;;;17.40;99.90;;;;;;5052647;28;20531;-69
2023/06/23 04:30:12;;;;;;;8.75;6.20;;;17.40;99.90;;;;;;5052850;28;20382;-69
2023/06/23 04:32:40;;;;;;;7.55;5.10;;;17.40;99.90;;;;;;5052735;28;20041;-69
2023/06/23 04:35:06;;;;;;;6.55;4.15;;;17.40;99.90;;;;;;5053038;28;20052;-69
2023/06/23 04:38:03;;;;;;;6.00;5.32;;;17.50;99.90;;;;;;5052677;28;20081;-70
2023/06/23 04:40:40;;;;;;;6.07;5.43;;;17.40;99.90;;;;;;5035271;28;20049;-69
2023/06/23 04:43:18;;;;;;;7.05;5.15;;;17.50;99.90;;;;;;5051435;28;20041;-69
2023/06/23 04:46:06;;;;;;;6.15;5.47;;;17.60;99.90;;;;;;5052477;28;20048;-70
2023/06/23 04:48:38;;;;;;;6.60;5.30;;;17.60;99.90;;;;;;5053084;28;20052;-70
2023/06/23 04:51:05;;;;;;;7.90;5.40;;;17.60;99.90;;;;;;5052721;28;20053;-68
2023/06/23 04:53:43;;;;;;;7.13;4.75;;;17.60;99.90;;;;;;5050938;28;20053;-69
2023/06/23 04:56:15;;;;;;;7.90;4.32;;;17.60;99.90;;;;;;5052394;28;20106;-68
2023/06/23 04:58:43;;;;;;;6.85;5.63;;;17.60;99.90;;;;;;5052281;28;20041;-69
2023/06/23 05:01:11;;;;;;;6.45;5.10;;;17.60;99.90;;;;;;5051048;28;20045;-69
2023/06/23 05:03:39;;;;;;;7.82;5.63;;;17.60;99.90;;;;;;5052080;28;20056;-69
2023/06/23 05:06:06;;;;;;;7.78;4.82;;;17.50;99.90;;;;;;5051304;28;20048;-69
2023/06/23 05:08:34;;;;;;;6.13;4.90;;;17.60;99.90;;;;;;5051923;28;20495;-69
2023/06/23 05:11:05;;;;;;;13.27;5.65;;;17.60;99.90;;;;;;5052093;28;20051;-69
2023/06/23 05:13:33;;;;;;;12.18;6.18;;;17.60;99.90;;;;;;5052662;28;20128;-69
2023/06/23 05:16:04;;;;;;;9.05;5.82;;;17.70;99.90;;;;;;5035080;28;20127;-69
2023/06/23 05:18:33;;;;;;;6.35;5.13;;;17.80;99.90;;;;;;5052370;28;20427;-69
2023/06/23 05:21:01;;;;;;;8.43;6.43;;;17.80;99.90;;;;;;5052132;28;20095;-69
2023/06/23 05:23:28;;;;;;;8.57;6.47;;;17.90;99.90;;;;;;5052637;28;20036;-68
2023/06/23 05:25:56;;;;;;;12.07;7.15;;;17.90;99.90;;;;;;5051821;28;20079;-69
2023/06/23 05:28:26;;;;;;;7.32;5.88;;;17.90;99.90;;;;;;5050744;28;20114;-69
2023/06/23 05:30:55;;;;;;;7.55;6.13;;;18.00;99.90;;;;;;5051406;28;20448;-69
2023/06/23 05:33:23;;;;;;;8.80;5.90;;;18.00;99.90;;;;;;5051940;28;20056;-69
2023/06/23 05:35:52;;;;;;;11.13;7.13;;;18.10;99.90;;;;;;5051489;28;20485;-69
2023/06/23 05:38:19;;;;;;;6.78;5.88;;;18.00;99.90;;;;;;5050599;28;20442;-68
2023/06/23 05:40:45;;;;;;;9.52;7.03;;;18.00;99.90;;;;;;5051730;28;20095;-68
2023/06/23 05:43:11;;;;;;;10.60;5.97;;;18.80;99.90;;;;;;5051800;28;20044;-69
2023/06/23 05:45:37;;;;;;;8.85;6.50;;;18.10;99.90;;;;;;5050691;28;20045;-69
2023/06/23 05:48:12;;;;;;;10.90;6.90;;;18.10;99.90;;;;;;5050689;28;20095;-69
2023/06/23 05:50:39;;;;;;;6.40;5.28;;;18.20;99.90;;;;;;5051692;28;20045;-70
2023/06/23 05:53:10;;;;;;;11.68;6.70;;;18.30;99.90;;;;;;5051855;28;20052;-68
2023/06/23 05:55:42;;;;;;;7.80;6.72;;;18.30;99.90;;;;;;5051733;28;20119;-68
2023/06/23 05:58:10;;;;;;;6.93;6.13;;;18.30;99.90;;;;;;5053373;28;20056;-69
2023/06/23 06:00:42;;;;;;;9.95;6.72;;;18.30;99.90;;;;;;5055151;28;20490;-69
2023/06/23 06:03:12;;;;;;;11.05;7.93;;;18.30;99.90;;;;;;5055701;28;20041;-69
2023/06/23 06:05:40;;;;;;;9.60;8.13;;;18.30;99.90;;;;;;5054184;28;20052;-70
2023/06/23 06:08:08;;;;;;;8.40;7.00;;;18.20;99.90;;;;;;5055953;28;20052;-70
2023/06/23 06:10:37;;;;;;;8.18;6.57;;;18.20;99.90;;;;;;5055633;28;20205;-70
2023/06/23 06:13:05;;;;;;;13.63;7.82;;;18.20;99.90;;;;;;5055109;28;20138;-70
2023/06/23 06:15:32;;;;;;;9.27;7.20;;;18.30;99.90;;;;;;5054003;28;20403;-70
2023/06/23 06:18:04;;;;;;;12.57;8.05;;;18.30;99.90;;;;;;5054967;28;20474;-69
2023/06/23 06:20:32;;;;;;;9.88;6.88;;;18.50;99.90;;;;;;5037523;28;20404;-70
2023/06/23 06:22:59;;;;;;;9.07;7.28;;;19.30;99.90;;;;;;5055012;28;20055;-69
2023/06/23 06:25:26;;;;;;;12.43;7.03;;;20.00;99.90;;;;;;5054507;28;20450;-68
2023/06/23 06:27:53;;;;;;;7.32;6.45;;;20.30;99.90;;;;;;5053677;28;20444;-69
2023/06/23 06:30:21;;;;;;;10.57;7.10;;;20.20;99.90;;;;;;5054559;28;20540;-68
2023/06/23 06:32:48;;;;;;;8.00;7.18;;;20.10;99.90;;;;;;5055011;28;20049;-69
2023/06/23 06:35:16;;;;;;;7.72;5.88;;;20.50;99.90;;;;;;5055238;28;20049;-70
2023/06/23 06:37:47;;;;;;;8.00;6.50;;;21.70;99.90;;;;;;5054765;28;20048;-70
2023/06/23 06:40:16;;;;;;;10.70;6.35;;;22.80;99.90;;;;;;5054976;28;20044;-68
2023/06/23 06:42:42;;;;;;;9.07;5.82;;;23.60;99.90;;;;;;5055076;28;20045;-68
2023/06/23 06:45:08;;;;;;;7.72;4.95;;;24.30;99.90;;;;;;5037851;28;20063;-69
2023/06/23 06:47:43;;;;;;;11.40;6.00;;;24.70;99.90;;;;;;5055128;28;20099;-69
2023/06/23 06:50:14;;;;;;;9.40;5.72;;;25.20;99.90;;;;;;5054640;28;20508;-68
2023/06/23 06:52:41;;;;;;;9.07;5.45;;;25.60;99.90;;;;;;5054593;28;20568;-69
2023/06/23 06:55:14;;;;;;;7.63;5.88;;;25.90;99.90;;;;;;5053420;28;20052;-70
2023/06/23 06:57:40;;;;;;;5.03;4.50;;;26.30;99.90;;;;;;5054332;28;20053;-70
2023/06/23 07:00:07;;;;;;;6.47;4.28;;;26.30;99.90;;;;;;5054919;28;20056;-71
2023/06/23 07:02:38;;;;;;;6.13;3.67;;;26.70;99.90;;;;;;5054223;28;20052;-70
2023/06/23 07:05:05;;;;;;;5.38;3.88;;;26.90;99.90;;;;;;5054150;28;20485;-71
2023/06/23 07:07:31;;;;;;;6.78;4.82;;;27.20;99.90;;;;;;5054006;28;20044;-71
2023/06/23 07:09:57;;;;;;;5.47;4.03;;;27.50;99.90;;;;;;5053219;28;20137;-71
2023/06/23 07:12:23;;;;;;;5.50;3.72;;;27.20;99.90;;;;;;5053906;28;20374;-70
2023/06/23 07:14:49;;;;;;;6.40;5.38;;;27.80;99.90;;;;;;5054229;28;20056;-72
2023/06/23 07:17:15;;;;;;;6.40;4.35;;;28.40;99.90;;;;;;5054074;28;20052;-72
2023/06/23 07:19:41;;;;;;;6.97;3.75;;;28.10;99.90;;;;;;5054111;28;20056;-71
2023/06/23 07:22:07;;;;;;;4.78;3.65;;;;;;;;;;5054031;28;20049;-71
2023/06/23 07:24:33;;;;;;;4.72;3.63;;;27.30;99.90;;;;;;5053687;28;20434;-70
2023/06/23 07:26:59;;;;;;;4.57;3.60;;;27.60;99.90;;;;;;5036327;28;20374;-71
2023/06/23 07:29:25;;;;;;;6.88;3.70;;;27.60;99.90;;;;;;5052265;28;20053;-71
2023/06/23 07:31:51;;;;;;;8.50;3.80;;;27.80;99.90;;;;;;5053636;28;20041;-71
2023/06/23 07:34:18;;;;;;;7.20;4.50;;;28.00;99.90;;;;;;5052552;28;20052;-71
2023/06/23 07:36:43;;;;;;;4.38;3.53;;;28.20;99.90;;;;;;5053760;28;20049;-71
2023/06/23 07:39:10;;;;;;;3.88;3.33;;;28.60;99.90;;;;;;5053888;28;20049;-71
2023/06/23 07:41:36;;;;;;;5.93;4.22;;;28.70;99.90;;;;;;5053421;28;20487;-70
2023/06/23 07:44:02;;;;;;;5.65;3.80;;;29.10;99.90;;;;;;5052335;28;20485;-71
2023/06/23 07:46:28;;;;;;;6.55;3.45;;;29.20;99.90;;;;;;5052090;28;20053;-72
2023/06/23 07:48:53;;;;;;;4.25;3.85;;;28.90;99.90;;;;;;5035636;28;20049;-71
2023/06/23 07:51:19;;;;;;;4.93;3.38;;;29.30;99.90;;;;;;5053141;28;20040;-71
2023/06/23 07:53:45;;;;;;;3.42;3.08;;;;;;;;;;5053043;28;20457;-71
2023/06/23 07:56:12;;;;;;;3.83;3.05;;;;;;;;;;5035596;28;20049;-71
2023/06/23 07:58:38;;;;;;;5.20;3.15;;;29.50;92.50;;;;;;5053459;28;20041;-71
2023/06/23 08:01:05;;;;;;;3.95;2.92;;;29.80;99.90;;;;;;5051786;28;20085;-72
2023/06/23 08:03:31;;;;;;;4.20;3.10;;;29.50;99.90;;;;;;5053166;28;20049;-71
2023/06/23 08:05:57;;;;;;;4.60;3.42;;;29.30;99.90;;;;;;5035513;28;20049;-73
2023/06/23 08:08:23;;;;;;;3.55;3.20;;;29.30;99.90;;;;;;5053545;28;20045;-72
2023/06/23 08:10:48;;;;;;;4.05;3.65;;;29.60;99.90;;;;;;5053342;28;20048;-73
2023/06/23 08:13:14;;;;;;;3.33;3.03;;;29.60;99.90;;;;;;5052186;28;20075;-72
2023/06/23 08:15:41;;;;;;;3.30;3.00;;;29.40;99.90;;;;;;5052128;28;20057;-74
2023/06/23 08:18:07;;;;;;;4.40;2.95;;;29.40;99.90;;;;;;5035508;28;20088;-72
2023/06/23 08:20:33;;;;;;;4.65;3.10;;;29.50;99.90;;;;;;5052686;28;20053;-72
2023/06/23 08:22:58;;;;;;;3.20;2.90;;;29.90;99.90;;;;;;5035114;28;20052;-72
2023/06/23 08:25:24;;;;;;;3.28;2.83;;;30.10;99.90;;;;;;5052029;28;20044;-72
2023/06/23 08:27:50;;;;;;;3.78;2.75;;;;;;;;;;5051588;28;20056;-72
2023/06/23 08:30:25;;;;;;;5.28;2.92;;;30.30;99.90;;;;;;5053201;28;20060;-73
2023/06/23 08:32:50;;;;;;;3.80;2.47;;;30.10;97.10;;;;;;5052758;28;20146;-72
2023/06/23 08:35:16;;;;;;;3.00;2.67;;;;;;;;;;5051553;28;20087;-72
2023/06/23 08:37:42;;;;;;;2.80;2.53;;;;;;;;;;5053056;28;20049;-72
2023/06/23 08:40:09;;;;;;;2.75;2.40;;;29.90;93.30;;;;;;5052703;28;20044;-72
2023/06/23 08:42:35;;;;;;;3.95;3.25;;;29.10;96.00;;;;;;5052094;28;20420;-73
2023/06/23 08:45:05;;;;;;;3.72;2.42;;;30.20;92.80;;;;;;5053294;28;20120;-74
2023/06/23 08:47:35;;;;;;;2.90;2.60;;;30.10;93.80;;;;;;5052435;28;20041;-74
2023/06/23 08:50:01;;;;;;;3.00;2.45;;;30.20;85.90;;;;;;5052416;28;20045;-74
2023/06/23 08:52:27;;;;;;;3.17;2.80;;;30.00;91.20;;;;;;5052325;28;20064;-71
2023/06/23 08:54:53;;;;;;;3.67;2.63;;;30.00;91.80;;;;;;5051261;28;20052;-70
2023/06/23 08:57:19;;;;;;;4.90;3.45;;;29.10;90.50;;;;;;5051766;28;20056;-68
2023/06/23 08:59:45;;;;;;;4.13;3.08;;;29.00;91.00;;;;;;5051036;28;20485;-68
2023/06/23 09:02:11;;;;;;;3.50;2.92;;;29.10;91.00;;;;;;5034679;28;20099;-69
2023/06/23 09:04:38;;;;;;;4.18;2.65;;;28.80;91.00;;;;;;5052298;28;20040;-69
2023/06/23 09:07:05;;;;;;;3.78;2.60;;;29.10;92.30;;;;;;5051365;28;20128;-69
2023/06/23 09:09:30;;;;;;;3.38;2.83;;;29.50;91.00;;;;;;5052172;28;20045;-70
2023/06/23 09:11:57;;;;;;;3.33;2.70;;;29.90;92.40;;;;;;5051940;28;20594;-70
2023/06/23 09:14:29;;;;;;;6.18;3.33;;;29.60;91.10;;;;;;5052510;28;20060;-68
2023/06/23 09:16:56;;;;;;;2.67;2.47;;;29.50;88.10;;;;;;5052293;28;20048;-68
2023/06/23 09:19:23;;;;;;;2.50;2.30;;;29.60;91.90;;;;;;5050937;28;20037;-68
2023/06/23 09:21:49;;;;;;;2.75;2.25;;;29.70;91.10;;;;;;5052212;28;20088;-68
2023/06/23 09:24:16;;;;;;;2.58;2.38;;;30.00;90.60;;;;;;5052255;28;20118;-68
2023/06/23 09:26:47;;;;;;;3.03;2.60;;;29.90;87.20;;;;;;5052511;28;20052;-68
2023/06/23 09:29:15;;;;;;;4.20;3.28;;;30.00;87.40;;;;;;5052127;28;20136;-68
2023/06/23 09:31:41;;;;;;;4.90;3.20;;;29.60;90.20;;;;;;5051780;28;20052;-70
2023/06/23 09:34:07;;;;;;;3.95;2.80;;;28.60;90.40;;;;;;5055642;28;20041;-68
2023/06/23 09:36:34;;;;;;;3.10;2.80;;;28.50;91.90;;;;;;5055054;28;20049;-68
2023/06/23 09:39:01;;;;;;;3.25;2.63;;;28.70;90.70;;;;;;5056029;28;20045;-68
2023/06/23 09:41:31;;;;;;;3.08;2.40;;;28.30;91.00;;;;;;5054661;28;20045;-69
2023/06/23 09:43:57;;;;;;;2.92;2.47;;;28.60;89.40;;;;;;5056422;28;20053;-68
2023/06/23 09:46:23;;;;;;;3.35;3.00;;;28.10;90.60;;;;;;5055821;28;20055;-69
2023/06/23 09:48:50;;;;;;;3.55;3.25;;;28.10;90.20;;;;;;5056090;28;20076;-68
2023/06/23 09:51:20;;;;;;;4.28;3.17;;;28.30;90.90;;;;;;5054457;28;20112;-69
2023/06/23 09:53:47;;;;;;;4.60;3.30;;;28.50;90.50;;;;;;5056033;28;20045;-69
2023/06/23 09:56:18;;;;;;;5.05;2.85;;;28.70;87.90;;;;;;5054490;28;20477;-67
2023/06/23 09:58:45;;;;;;;3.88;2.92;;;29.00;90.30;;;;;;5056055;28;20053;-68
2023/06/23 10:01:18;;;;;;;4.15;2.97;;;29.10;90.20;;;;;;5054334;28;20067;-67
2023/06/23 10:03:48;;;;;;;3.35;3.00;;;29.50;90.40;;;;;;5054380;28;20428;-70
2023/06/23 10:06:32;;;;;;;4.95;3.13;;;29.50;90.70;;;;;;5054936;28;20052;-67
2023/06/23 10:09:05;;;;;;;5.60;3.30;;;29.80;91.30;;;;;;5055437;28;20053;-69
2023/06/23 10:11:36;;;;;;;4.53;2.85;;;30.10;87.40;;;;;;5055258;28;20097;-68
2023/06/23 10:14:05;;;;;;;3.88;3.20;;;29.70;86.40;;;;;;5055302;28;20045;-67
2023/06/23 10:16:33;;;;;;;3.33;3.03;;;29.30;89.20;;;;;;5054169;28;20480;-70
2023/06/23 10:18:59;;;;;;;3.08;2.60;;;29.20;88.20;;;;;;5055578;28;20055;-69
2023/06/23 10:21:25;;;;;;;3.65;2.80;;;28.90;90.30;;;;;;5054194;28;20135;-68
2023/06/23 10:23:54;;;;;;;4.93;2.58;;;29.10;91.40;;;;;;5055181;28;20057;-69
2023/06/23 10:26:22;;;;;;;2.47;2.22;;;29.30;90.50;;;;;;5054956;28;20053;-71
2023/06/23 10:28:50;;;;;;;3.35;2.97;;;29.30;88.00;;;;;;5053884;28;20052;-68
2023/06/23 10:31:17;;;;;;;3.22;2.50;;;29.40;89.50;;;;;;5054657;28;20084;-69
2023/06/23 10:33:43;;;;;;;4.50;2.80;;;29.60;90.10;;;;;;5055228;28;20045;-68
2023/06/23 10:36:18;;;;;;;3.55;2.85;;;29.70;90.90;;;;;;5054838;28;20063;-66
2023/06/23 10:38:46;;;;;;;4.85;3.15;;;29.80;89.40;;;;;;5055182;28;20409;-70
2023/06/23 10:41:13;;;;;;;4.07;2.53;;;29.90;86.90;;;;;;5055044;28;20053;-68
2023/06/23 10:43:41;;;;;;;3.63;2.50;;;29.60;88.50;;;;;;5054999;28;20052;-67
2023/06/23 10:46:07;;;;;;;2.90;2.53;;;29.70;90.10;;;;;;5054580;28;20041;-68
2023/06/23 10:48:33;;;;;;;3.25;2.90;;;29.70;90.50;;;;;;5054671;28;20048;-67
2023/06/23 10:51:00;;;;;;;3.67;3.38;;;29.30;86.80;;;;;;5054447;28;20438;-68
2023/06/23 10:53:30;;;;;;;5.82;3.88;;;29.20;90.20;;;;;;5054588;28;20051;-69
2023/06/23 10:55:59;;;;;;;4.25;3.80;;;28.30;88.40;;;;;;5054365;28;20048;-68
2023/06/23 10:58:25;;;;;;;3.85;3.47;;;27.80;90.70;;;;;;5054408;28;20055;-69
2023/06/23 11:00:54;;;;;;;3.88;2.88;;;27.90;91.70;;;;;;5054401;28;20133;-68
2023/06/23 11:03:30;;;;;;;4.55;3.25;;;28.30;91.20;;;;;;5053578;28;20497;-67
2023/06/23 11:05:58;;;;;;;4.43;3.30;;;28.50;91.40;;;;;;5053034;28;20060;-68
2023/06/23 11:08:35;;;;;;;5.68;4.05;;;28.40;89.70;;;;;;5054715;28;20450;-69
2023/06/23 11:11:09;;;;;;;3.50;3.20;;;28.00;89.50;;;;;;5053058;28;20095;-68
2023/06/23 11:13:37;;;;;;;5.10;3.47;;;27.80;90.20;;;;;;5053295;28;20490;-66
2023/06/23 11:16:04;;;;;;;4.55;3.67;;;28.00;91.30;;;;;;5054700;28;20049;-67
2023/06/23 11:18:30;;;;;;;4.80;3.20;;;27.90;90.90;;;;;;5053983;28;20048;-67
2023/06/23 11:21:15;;;;;;;4.07;3.67;;;27.80;90.70;;;;;;5054584;28;20049;-67
2023/06/23 11:24:09;;;;;;;4.85;3.33;;;27.40;91.20;;;;;;5054295;28;20052;-69
2023/06/23 11:26:35;;;;;;;4.90;3.30;;;27.20;88.90;;;;;;5053635;28;20053;-67
2023/06/23 11:29:07;;;;;;;3.92;3.42;;;26.80;91.20;;;;;;5053953;28;20086;-67
2023/06/23 11:31:33;;;;;;;4.40;4.00;;;26.90;90.60;;;;;;5053085;28;20049;-67
2023/06/23 11:34:02;;;;;;;3.42;3.03;;;27.10;90.90;;;;;;5053821;28;20469;-66
2023/06/23 11:36:31;;;;;;;3.35;2.88;;;27.40;89.30;;;;;;5053205;28;20465;-67
2023/06/23 11:38:58;;;;;;;4.28;2.92;;;27.40;90.00;;;;;;5052870;28;20052;-67
2023/06/23 11:41:28;;;;;;;4.03;3.63;;;27.50;88.40;;;;;;5052578;28;20052;-66
2023/06/23 11:43:58;;;;;;;5.28;3.45;;;27.60;87.40;;;;;;5053239;28;20559;-68
2023/06/23 11:46:24;;;;;;;3.85;3.20;;;27.60;88.40;;;;;;5052364;28;20041;-68
2023/06/23 11:48:50;;;;;;;3.85;3.55;;;27.70;89.60;;;;;;5053505;28;20503;-66
2023/06/23 11:51:17;;;;;;;3.65;3.35;;;27.90;90.30;;;;;;5052490;28;20041;-68
2023/06/23 11:53:44;;;;;;;4.28;3.35;;;28.30;90.60;;;;;;5053799;28;20063;-68
2023/06/23 11:56:15;;;;;;;3.88;3.50;;;28.50;90.30;;;;;;5051621;28;20053;-65
2023/06/23 11:58:46;;;;;;;4.72;3.42;;;28.30;87.10;;;;;;5053891;28;20051;-69
2023/06/23 12:01:12;;;;;;;5.30;4.30;;;28.30;89.20;;;;;;5053687;28;20045;-68
2023/06/23 12:03:38;;;;;;;5.30;4.80;;;28.20;89.10;;;;;;5053381;28;20041;-68
2023/06/23 12:06:04;;;;;;;6.15;4.80;;;27.20;90.10;;;;;;5053179;28;20064;-67
2023/06/23 12:08:30;;;;;;;5.90;4.80;;;27.60;90.80;;;;;;5053036;28;20040;-70
2023/06/23 12:10:56;;;;;;;4.30;3.90;;;27.70;91.00;;;;;;5053348;28;20041;-67
2023/06/23 12:13:22;;;;;;;6.35;4.32;;;27.80;90.40;;;;;;5053337;28;20057;-68
2023/06/23 12:15:47;;;;;;;5.50;4.60;;;27.80;90.40;;;;;;5053006;28;20113;-68
2023/06/23 12:18:14;;;;;;;6.18;4.30;;;27.90;89.80;;;;;;5052094;28;20047;-67
2023/06/23 12:20:42;;;;;;;5.72;5.00;;;27.50;90.20;;;;;;5052914;28;20092;-67
2023/06/23 12:23:14;;;;;;;9.70;5.25;;;27.50;90.50;;;;;;5052794;28;20637;-68
2023/06/23 12:25:44;;;;;;;5.37;4.70;;;26.90;90.50;;;;;;5035413;28;20040;-66
2023/06/23 12:28:15;;;;;;;6.28;3.88;;;27.00;90.20;;;;;;5052424;28;20084;-66
2023/06/23 12:30:43;;;;;;;4.20;3.65;;;26.90;87.40;;;;;;5052430;28;20045;-67
2023/06/23 12:33:27;;;;;;;6.00;3.90;;;27.20;89.80;;;;;;5051243;28;20045;-67
2023/06/23 12:35:59;;;;;;;4.68;3.55;;;27.00;84.30;;;;;;5051679;28;20052;-69
2023/06/23 12:38:25;;;;;;;4.27;3.60;;;27.10;87.50;;;;;;5034664;28;20067;-67
2023/06/23 12:40:51;;;;;;;4.95;3.75;;;26.80;85.30;;;;;;5050565;28;20507;-67
2023/06/23 12:43:18;;;;;;;4.38;3.40;;;27.10;86.50;;;;;;5051919;28;20102;-67
2023/06/23 12:45:53;;;;;;;4.97;3.25;;;27.20;85.60;;;;;;5051251;28;20395;-69
2023/06/23 12:48:22;;;;;;;2.67;2.35;;;27.20;79.20;;;;;;5051813;28;20055;-68
2023/06/23 12:50:55;;;;;;;2.88;2.50;;;27.30;79.40;;;;;;5050249;28;20483;-69
2023/06/23 12:53:21;;;;;;;4.88;2.83;;;27.40;79.90;;;;;;5051543;28;20052;-67
2023/06/23 12:55:47;;;;;;;5.05;3.50;;;27.10;80.80;;;;;;5051582;28;20052;-70